sensor_id;sensor_type;location;lat;lon;timestamp;temperature;humidity
4584;DHT22;2304;47.606;12.186;2022-07-09T00:00:42;17.50;68.30
4584;DHT22;2304;47.606;12.186;2022-07-09T00:05:45;17.40;68.60
4584;DHT22;2304;47.606;12.186;2022-07-09T00:10:47;17.40;67.80
4584;DHT22;2304;47.606;12.186;2022-07-09T00:15:49;17.40;67.80
4584;DHT22;2304;47.606;12.186;2022-07-09T00:20:55;17.50;68.00
4584;DHT22;2304;47.606;12.186;2022-07-09T00:25:57;17.10;69.10
4584;DHT22;2304;47.606;12.186;2022-07-09T00:30:59;17.20;68.60
4584;DHT22;2304;47.606;12.186;2022-07-09T00:36:02;17.20;68.30
4584;DHT22;2304;47.606;12.186;2022-07-09T00:41:05;17.20;68.50
4584;DHT22;2304;47.606;12.186;2022-07-09T00:46:07;17.10;68.20
4584;DHT22;2304;47.606;12.186;2022-07-09T00:51:11;17.10;68.60
4584;DHT22;2304;47.606;12.186;2022-07-09T00:56:14;17.10;68.80
4584;DHT22;2304;47.606;12.186;2022-07-09T01:01:16;17.00;68.20
4584;DHT22;2304;47.606;12.186;2022-07-09T01:06:19;17.10;68.70
4584;DHT22;2304;47.606;12.186;2022-07-09T01:11:21;17.20;68.60
4584;DHT22;2304;47.606;12.186;2022-07-09T01:16:30;17.00;68.40
4584;DHT22;2304;47.606;12.186;2022-07-09T01:21:34;17.00;68.60
4584;DHT22;2304;47.606;12.186;2022-07-09T01:26:36;17.20;69.10
4584;DHT22;2304;47.606;12.186;2022-07-09T01:31:38;16.90;68.90
4584;DHT22;2304;47.606;12.186;2022-07-09T01:36:41;17.00;69.40
4584;DHT22;2304;47.606;12.186;2022-07-09T01:41:44;16.80;69.60
4584;DHT22;2304;47.606;12.186;2022-07-09T01:46:46;16.80;69.60
4584;DHT22;2304;47.606;12.186;2022-07-09T01:51:49;16.70;69.60
4584;DHT22;2304;47.606;12.186;2022-07-09T01:56:51;16.70;69.70
4584;DHT22;2304;47.606;12.186;2022-07-09T02:01:53;16.90;70.00
4584;DHT22;2304;47.606;12.186;2022-07-09T02:06:56;16.80;69.00
4584;DHT22;2304;47.606;12.186;2022-07-09T02:11:58;16.70;69.40
4584;DHT22;2304;47.606;12.186;2022-07-09T02:17:00;16.60;69.50
4584;DHT22;2304;47.606;12.186;2022-07-09T02:22:04;16.60;69.70
4584;DHT22;2304;47.606;12.186;2022-07-09T02:27:06;16.50;68.00
4584;DHT22;2304;47.606;12.186;2022-07-09T02:32:09;16.50;69.40
4584;DHT22;2304;47.606;12.186;2022-07-09T02:37:13;16.40;68.70
4584;DHT22;2304;47.606;12.186;2022-07-09T02:42:15;16.40;69.40
4584;DHT22;2304;47.606;12.186;2022-07-09T02:47:16;16.50;69.80
4584;DHT22;2304;47.606;12.186;2022-07-09T02:52:20;16.30;69.90
4584;DHT22;2304;47.606;12.186;2022-07-09T02:57:21;16.30;70.50
4584;DHT22;2304;47.606;12.186;2022-07-09T03:02:23;16.00;67.80
4584;DHT22;2304;47.606;12.186;2022-07-09T03:07:27;15.70;68.40
4584;DHT22;2304;47.606;12.186;2022-07-09T03:12:28;15.80;72.10
4584;DHT22;2304;47.606;12.186;2022-07-09T03:17:30;15.90;71.60
4584;DHT22;2304;47.606;12.186;2022-07-09T03:22:33;16.00;71.30
4584;DHT22;2304;47.606;12.186;2022-07-09T03:27:36;16.10;71.10
4584;DHT22;2304;47.606;12.186;2022-07-09T03:32:38;16.30;70.70
4584;DHT22;2304;47.606;12.186;2022-07-09T03:37:41;16.00;70.40
4584;DHT22;2304;47.606;12.186;2022-07-09T03:42:43;16.00;71.40
4584;DHT22;2304;47.606;12.186;2022-07-09T03:47:45;16.00;70.90
4584;DHT22;2304;47.606;12.186;2022-07-09T03:52:50;16.00;71.60
4584;DHT22;2304;47.606;12.186;2022-07-09T03:57:52;16.00;70.50
4584;DHT22;2304;47.606;12.186;2022-07-09T04:02:54;15.90;71.40
4584;DHT22;2304;47.606;12.186;2022-07-09T04:07:57;16.00;72.00
4584;DHT22;2304;47.606;12.186;2022-07-09T04:12:59;16.10;71.80
4584;DHT22;2304;47.606;12.186;2022-07-09T04:18:01;16.20;72.00
4584;DHT22;2304;47.606;12.186;2022-07-09T04:23:04;16.20;71.90
4584;DHT22;2304;47.606;12.186;2022-07-09T04:28:06;16.40;71.60
4584;DHT22;2304;47.606;12.186;2022-07-09T04:33:08;16.30;71.70
4584;DHT22;2304;47.606;12.186;2022-07-09T04:38:12;16.10;70.60
4584;DHT22;2304;47.606;12.186;2022-07-09T04:43:14;16.10;72.00
4584;DHT22;2304;47.606;12.186;2022-07-09T04:48:16;16.20;73.20
4584;DHT22;2304;47.606;12.186;2022-07-09T04:53:20;16.30;72.70
4584;DHT22;2304;47.606;12.186;2022-07-09T04:58:21;16.70;72.80
4584;DHT22;2304;47.606;12.186;2022-07-09T05:03:23;16.50;70.40
4584;DHT22;2304;47.606;12.186;2022-07-09T05:08:26;16.50;71.00
4584;DHT22;2304;47.606;12.186;2022-07-09T05:13:28;16.80;70.90
4584;DHT22;2304;47.606;12.186;2022-07-09T05:18:30;16.30;68.60
4584;DHT22;2304;47.606;12.186;2022-07-09T05:23:34;16.30;69.90
4584;DHT22;2304;47.606;12.186;2022-07-09T05:28:35;16.40;70.10
4584;DHT22;2304;47.606;12.186;2022-07-09T05:33:37;16.50;70.50
4584;DHT22;2304;47.606;12.186;2022-07-09T05:38:56;16.50;70.20
4584;DHT22;2304;47.606;12.186;2022-07-09T05:44:01;16.60;71.60
4584;DHT22;2304;47.606;12.186;2022-07-09T05:49:04;16.60;70.90
4584;DHT22;2304;47.606;12.186;2022-07-09T05:54:07;16.70;70.90
4584;DHT22;2304;47.606;12.186;2022-07-09T05:59:09;16.90;70.90
4584;DHT22;2304;47.606;12.186;2022-07-09T06:04:11;17.00;69.50
4584;DHT22;2304;47.606;12.186;2022-07-09T06:09:14;17.10;69.30
4584;DHT22;2304;47.606;12.186;2022-07-09T06:14:17;17.20;69.30
4584;DHT22;2304;47.606;12.186;2022-07-09T06:19:20;17.40;68.70
4584;DHT22;2304;47.606;12.186;2022-07-09T06:24:23;17.70;67.50
4584;DHT22;2304;47.606;12.186;2022-07-09T06:29:25;17.80;68.00
4584;DHT22;2304;47.606;12.186;2022-07-09T06:34:27;17.80;65.60
4584;DHT22;2304;47.606;12.186;2022-07-09T06:39:30;17.80;66.00
4584;DHT22;2304;47.606;12.186;2022-07-09T06:44:49;18.10;66.20
4584;DHT22;2304;47.606;12.186;2022-07-09T06:49:51;18.10;65.90
4584;DHT22;2304;47.606;12.186;2022-07-09T06:54:54;18.20;64.60
4584;DHT22;2304;47.606;12.186;2022-07-09T06:59:56;18.20;64.80
4584;DHT22;2304;47.606;12.186;2022-07-09T07:04:58;18.30;65.50
4584;DHT22;2304;47.606;12.186;2022-07-09T07:10:01;18.30;65.20
4584;DHT22;2304;47.606;12.186;2022-07-09T07:15:03;18.50;65.50
4584;DHT22;2304;47.606;12.186;2022-07-09T07:20:06;18.70;65.20
4584;DHT22;2304;47.606;12.186;2022-07-09T07:25:10;18.60;63.80
4584;DHT22;2304;47.606;12.186;2022-07-09T07:30:12;18.80;64.50
4584;DHT22;2304;47.606;12.186;2022-07-09T07:35:14;18.80;63.50
4584;DHT22;2304;47.606;12.186;2022-07-09T07:40:18;18.90;64.50
4584;DHT22;2304;47.606;12.186;2022-07-09T07:45:20;19.10;62.20
4584;DHT22;2304;47.606;12.186;2022-07-09T07:50:23;19.50;62.70
4584;DHT22;2304;47.606;12.186;2022-07-09T07:55:27;19.30;62.60
4584;DHT22;2304;47.606;12.186;2022-07-09T08:00:28;19.40;60.70
4584;DHT22;2304;47.606;12.186;2022-07-09T08:05:30;19.50;61.20
4584;DHT22;2304;47.606;12.186;2022-07-09T08:10:34;19.80;63.00
4584;DHT22;2304;47.606;12.186;2022-07-09T08:15:36;20.00;60.30
4584;DHT22;2304;47.606;12.186;2022-07-09T08:20:38;19.90;57.70
4584;DHT22;2304;47.606;12.186;2022-07-09T08:25:41;20.10;58.30
4584;DHT22;2304;47.606;12.186;2022-07-09T08:30:43;20.40;59.40
4584;DHT22;2304;47.606;12.186;2022-07-09T08:35:45;20.90;60.30
4584;DHT22;2304;47.606;12.186;2022-07-09T08:40:49;21.30;58.10
4584;DHT22;2304;47.606;12.186;2022-07-09T08:45:51;21.70;56.00
4584;DHT22;2304;47.606;12.186;2022-07-09T08:50:54;22.00;56.50
4584;DHT22;2304;47.606;12.186;2022-07-09T08:55:58;22.10;54.50
4584;DHT22;2304;47.606;12.186;2022-07-09T09:01:00;22.60;56.00
4584;DHT22;2304;47.606;12.186;2022-07-09T09:06:06;22.80;56.20
4584;DHT22;2304;47.606;12.186;2022-07-09T09:11:13;22.90;53.90
4584;DHT22;2304;47.606;12.186;2022-07-09T09:16:17;22.90;53.60
4584;DHT22;2304;47.606;12.186;2022-07-09T09:21:22;23.10;52.60
4584;DHT22;2304;47.606;12.186;2022-07-09T09:26:26;23.10;53.60
4584;DHT22;2304;47.606;12.186;2022-07-09T09:31:30;23.10;50.40
4584;DHT22;2304;47.606;12.186;2022-07-09T09:36:34;22.90;50.70
4584;DHT22;2304;47.606;12.186;2022-07-09T09:41:38;23.20;49.30
4584;DHT22;2304;47.606;12.186;2022-07-09T09:46:40;23.20;46.50
4584;DHT22;2304;47.606;12.186;2022-07-09T09:51:49;23.30;49.30
4584;DHT22;2304;47.606;12.186;2022-07-09T09:56:54;23.60;45.50
4584;DHT22;2304;47.606;12.186;2022-07-09T10:01:56;24.20;46.00
4584;DHT22;2304;47.606;12.186;2022-07-09T10:06:59;24.10;45.00
4584;DHT22;2304;47.606;12.186;2022-07-09T10:12:03;24.10;48.90
4584;DHT22;2304;47.606;12.186;2022-07-09T10:17:13;24.10;49.00
4584;DHT22;2304;47.606;12.186;2022-07-09T10:22:15;24.50;49.40
4584;DHT22;2304;47.606;12.186;2022-07-09T10:27:18;24.70;48.30
4584;DHT22;2304;47.606;12.186;2022-07-09T10:32:27;24.50;47.40
4584;DHT22;2304;47.606;12.186;2022-07-09T10:37:40;24.60;49.10
4584;DHT22;2304;47.606;12.186;2022-07-09T10:42:45;25.00;47.90
4584;DHT22;2304;47.606;12.186;2022-07-09T10:47:51;25.50;47.50
4584;DHT22;2304;47.606;12.186;2022-07-09T10:52:54;25.70;46.00
4584;DHT22;2304;47.606;12.186;2022-07-09T10:57:57;25.80;44.40
4584;DHT22;2304;47.606;12.186;2022-07-09T11:03:00;26.00;47.90
4584;DHT22;2304;47.606;12.186;2022-07-09T11:08:05;26.20;45.80
4584;DHT22;2304;47.606;12.186;2022-07-09T11:13:09;26.20;47.70
4584;DHT22;2304;47.606;12.186;2022-07-09T11:18:11;26.40;46.30
4584;DHT22;2304;47.606;12.186;2022-07-09T11:23:16;26.40;44.90
4584;DHT22;2304;47.606;12.186;2022-07-09T11:28:23;26.20;45.30
4584;DHT22;2304;47.606;12.186;2022-07-09T11:33:25;26.20;43.10
4584;DHT22;2304;47.606;12.186;2022-07-09T11:38:27;26.30;44.90
4584;DHT22;2304;47.606;12.186;2022-07-09T11:43:31;26.20;45.80
4584;DHT22;2304;47.606;12.186;2022-07-09T11:48:33;26.00;43.30
4584;DHT22;2304;47.606;12.186;2022-07-09T11:53:35;25.70;43.90
4584;DHT22;2304;47.606;12.186;2022-07-09T11:58:49;25.60;43.70
4584;DHT22;2304;47.606;12.186;2022-07-09T12:03:51;25.40;43.60
4584;DHT22;2304;47.606;12.186;2022-07-09T12:08:59;25.00;45.40
4584;DHT22;2304;47.606;12.186;2022-07-09T12:14:02;24.80;47.00
4584;DHT22;2304;47.606;12.186;2022-07-09T12:19:04;24.80;47.90
4584;DHT22;2304;47.606;12.186;2022-07-09T12:24:06;24.80;46.70
4584;DHT22;2304;47.606;12.186;2022-07-09T12:29:10;25.20;46.90
4584;DHT22;2304;47.606;12.186;2022-07-09T12:34:12;25.80;47.80
4584;DHT22;2304;47.606;12.186;2022-07-09T12:39:14;25.90;45.60
4584;DHT22;2304;47.606;12.186;2022-07-09T12:44:18;25.80;44.70
4584;DHT22;2304;47.606;12.186;2022-07-09T12:49:19;25.80;45.00
4584;DHT22;2304;47.606;12.186;2022-07-09T12:54:21;25.90;43.10
4584;DHT22;2304;47.606;12.186;2022-07-09T12:59:25;26.10;42.60
4584;DHT22;2304;47.606;12.186;2022-07-09T13:04:27;25.70;40.90
4584;DHT22;2304;47.606;12.186;2022-07-09T13:09:29;26.00;43.90
4584;DHT22;2304;47.606;12.186;2022-07-09T13:14:32;26.30;39.80
4584;DHT22;2304;47.606;12.186;2022-07-09T13:19:34;26.40;42.50
4584;DHT22;2304;47.606;12.186;2022-07-09T13:24:36;26.40;40.00
4584;DHT22;2304;47.606;12.186;2022-07-09T13:29:39;26.50;39.50
4584;DHT22;2304;47.606;12.186;2022-07-09T13:34:41;26.60;39.00
4584;DHT22;2304;47.606;12.186;2022-07-09T13:39:43;26.20;38.70
4584;DHT22;2304;47.606;12.186;2022-07-09T13:44:46;26.00;40.10
4584;DHT22;2304;47.606;12.186;2022-07-09T13:49:48;25.90;40.00
4584;DHT22;2304;47.606;12.186;2022-07-09T13:54:50;26.10;42.60
4584;DHT22;2304;47.606;12.186;2022-07-09T13:59:53;26.40;40.70
4584;DHT22;2304;47.606;12.186;2022-07-09T14:04:55;26.60;39.50
4584;DHT22;2304;47.606;12.186;2022-07-09T14:09:57;27.00;40.90
4584;DHT22;2304;47.606;12.186;2022-07-09T14:15:00;26.90;38.70
4584;DHT22;2304;47.606;12.186;2022-07-09T14:20:03;26.60;37.40
4584;DHT22;2304;47.606;12.186;2022-07-09T14:25:07;26.40;40.00
4584;DHT22;2304;47.606;12.186;2022-07-09T14:30:11;26.20;39.70
4584;DHT22;2304;47.606;12.186;2022-07-09T14:35:13;26.10;41.10
4584;DHT22;2304;47.606;12.186;2022-07-09T14:40:15;26.00;42.70
4584;DHT22;2304;47.606;12.186;2022-07-09T14:45:18;25.90;41.00
4584;DHT22;2304;47.606;12.186;2022-07-09T14:50:20;25.80;39.90
4584;DHT22;2304;47.606;12.186;2022-07-09T14:55:22;25.70;40.60
4584;DHT22;2304;47.606;12.186;2022-07-09T15:00:25;25.70;43.10
4584;DHT22;2304;47.606;12.186;2022-07-09T15:05:27;25.70;43.70
4584;DHT22;2304;47.606;12.186;2022-07-09T15:10:29;25.90;43.70
4584;DHT22;2304;47.606;12.186;2022-07-09T15:15:33;25.80;44.60
4584;DHT22;2304;47.606;12.186;2022-07-09T15:20:35;25.70;42.50
4584;DHT22;2304;47.606;12.186;2022-07-09T15:25:37;25.70;42.70
4584;DHT22;2304;47.606;12.186;2022-07-09T15:30:40;25.70;43.80
4584;DHT22;2304;47.606;12.186;2022-07-09T15:35:44;25.70;43.50
4584;DHT22;2304;47.606;12.186;2022-07-09T15:40:45;25.80;43.40
4584;DHT22;2304;47.606;12.186;2022-07-09T15:45:49;25.80;42.80
4584;DHT22;2304;47.606;12.186;2022-07-09T15:50:51;25.70;42.60
4584;DHT22;2304;47.606;12.186;2022-07-09T15:55:52;25.60;43.10
4584;DHT22;2304;47.606;12.186;2022-07-09T16:00:56;25.50;42.20
4584;DHT22;2304;47.606;12.186;2022-07-09T16:05:58;25.40;42.80
4584;DHT22;2304;47.606;12.186;2022-07-09T16:11:00;25.20;41.60
4584;DHT22;2304;47.606;12.186;2022-07-09T16:16:23;25.20;43.20
4584;DHT22;2304;47.606;12.186;2022-07-09T16:21:25;25.20;44.30
4584;DHT22;2304;47.606;12.186;2022-07-09T16:26:27;25.30;43.50
4584;DHT22;2304;47.606;12.186;2022-07-09T16:31:30;25.30;43.70
4584;DHT22;2304;47.606;12.186;2022-07-09T16:36:32;25.20;44.30
4584;DHT22;2304;47.606;12.186;2022-07-09T16:41:34;25.10;46.10
4584;DHT22;2304;47.606;12.186;2022-07-09T16:46:37;25.00;45.50
4584;DHT22;2304;47.606;12.186;2022-07-09T16:51:39;24.90;45.50
4584;DHT22;2304;47.606;12.186;2022-07-09T16:56:42;24.80;45.10
4584;DHT22;2304;47.606;12.186;2022-07-09T17:01:45;24.70;46.90
4584;DHT22;2304;47.606;12.186;2022-07-09T17:06:47;24.60;46.50
4584;DHT22;2304;47.606;12.186;2022-07-09T17:11:49;24.50;45.40
4584;DHT22;2304;47.606;12.186;2022-07-09T17:16:52;24.30;46.00
4584;DHT22;2304;47.606;12.186;2022-07-09T17:21:54;24.20;47.00
4584;DHT22;2304;47.606;12.186;2022-07-09T17:26:56;24.20;49.40
4584;DHT22;2304;47.606;12.186;2022-07-09T17:31:59;24.20;49.60
4584;DHT22;2304;47.606;12.186;2022-07-09T17:37:01;24.10;49.50
4584;DHT22;2304;47.606;12.186;2022-07-09T17:42:03;24.10;49.80
4584;DHT22;2304;47.606;12.186;2022-07-09T17:47:06;24.10;50.30
4584;DHT22;2304;47.606;12.186;2022-07-09T17:52:08;24.00;50.60
4584;DHT22;2304;47.606;12.186;2022-07-09T17:57:10;23.90;51.00
4584;DHT22;2304;47.606;12.186;2022-07-09T18:02:13;23.80;51.40
4584;DHT22;2304;47.606;12.186;2022-07-09T18:07:15;23.70;50.80
4584;DHT22;2304;47.606;12.186;2022-07-09T18:12:17;23.60;50.80
4584;DHT22;2304;47.606;12.186;2022-07-09T18:17:20;23.50;51.20
4584;DHT22;2304;47.606;12.186;2022-07-09T18:22:22;23.50;51.80
4584;DHT22;2304;47.606;12.186;2022-07-09T18:27:24;23.40;53.50
4584;DHT22;2304;47.606;12.186;2022-07-09T18:32:27;23.30;53.90
4584;DHT22;2304;47.606;12.186;2022-07-09T18:37:29;23.20;54.40
4584;DHT22;2304;47.606;12.186;2022-07-09T18:42:31;23.00;54.70
4584;DHT22;2304;47.606;12.186;2022-07-09T18:47:34;22.90;55.00
4584;DHT22;2304;47.606;12.186;2022-07-09T18:52:36;22.80;55.10
4584;DHT22;2304;47.606;12.186;2022-07-09T18:57:37;22.70;55.80
4584;DHT22;2304;47.606;12.186;2022-07-09T19:02:41;22.70;55.60
4584;DHT22;2304;47.606;12.186;2022-07-09T19:07:43;22.70;55.70
4584;DHT22;2304;47.606;12.186;2022-07-09T19:12:44;22.60;55.80
4584;DHT22;2304;47.606;12.186;2022-07-09T19:17:48;22.60;55.70
4584;DHT22;2304;47.606;12.186;2022-07-09T19:22:50;22.50;56.30
4584;DHT22;2304;47.606;12.186;2022-07-09T19:27:52;22.50;57.20
4584;DHT22;2304;47.606;12.186;2022-07-09T19:32:55;22.40;56.80
4584;DHT22;2304;47.606;12.186;2022-07-09T19:38:14;22.30;57.40
4584;DHT22;2304;47.606;12.186;2022-07-09T19:43:16;22.20;57.10
4584;DHT22;2304;47.606;12.186;2022-07-09T19:48:19;22.20;57.50
4584;DHT22;2304;47.606;12.186;2022-07-09T19:53:21;22.10;58.70
4584;DHT22;2304;47.606;12.186;2022-07-09T19:58:23;22.10;58.10
4584;DHT22;2304;47.606;12.186;2022-07-09T20:03:26;22.00;58.30
4584;DHT22;2304;47.606;12.186;2022-07-09T20:08:29;22.00;58.30
4584;DHT22;2304;47.606;12.186;2022-07-09T20:13:30;22.00;58.50
4584;DHT22;2304;47.606;12.186;2022-07-09T20:18:34;21.80;58.40
4584;DHT22;2304;47.606;12.186;2022-07-09T20:23:35;21.70;59.20
4584;DHT22;2304;47.606;12.186;2022-07-09T20:28:37;21.70;58.80
4584;DHT22;2304;47.606;12.186;2022-07-09T20:33:40;21.60;59.50
4584;DHT22;2304;47.606;12.186;2022-07-09T20:38:42;21.40;57.80
4584;DHT22;2304;47.606;12.186;2022-07-09T20:43:44;21.40;57.50
4584;DHT22;2304;47.606;12.186;2022-07-09T20:48:48;21.30;57.50
4584;DHT22;2304;47.606;12.186;2022-07-09T20:53:50;21.10;57.70
4584;DHT22;2304;47.606;12.186;2022-07-09T20:58:52;21.10;58.00
4584;DHT22;2304;47.606;12.186;2022-07-09T21:03:56;21.10;58.70
4584;DHT22;2304;47.606;12.186;2022-07-09T21:08:58;21.00;59.20
4584;DHT22;2304;47.606;12.186;2022-07-09T21:14:00;20.90;59.90
4584;DHT22;2304;47.606;12.186;2022-07-09T21:19:03;20.80;60.60
4584;DHT22;2304;47.606;12.186;2022-07-09T21:24:05;20.70;60.10
4584;DHT22;2304;47.606;12.186;2022-07-09T21:29:07;20.70;60.00
4584;DHT22;2304;47.606;12.186;2022-07-09T21:34:10;20.70;59.60
4584;DHT22;2304;47.606;12.186;2022-07-09T21:39:12;20.60;60.00
4584;DHT22;2304;47.606;12.186;2022-07-09T21:44:14;20.60;60.60
4584;DHT22;2304;47.606;12.186;2022-07-09T21:49:17;20.70;60.90
4584;DHT22;2304;47.606;12.186;2022-07-09T21:54:19;20.60;61.30
4584;DHT22;2304;47.606;12.186;2022-07-09T21:59:21;20.50;62.30
4584;DHT22;2304;47.606;12.186;2022-07-09T22:04:24;20.40;62.40
4584;DHT22;2304;47.606;12.186;2022-07-09T22:09:26;20.50;61.40
4584;DHT22;2304;47.606;12.186;2022-07-09T22:14:28;20.50;61.40
4584;DHT22;2304;47.606;12.186;2022-07-09T22:19:31;20.40;60.50
4584;DHT22;2304;47.606;12.186;2022-07-09T22:24:33;20.30;60.70
4584;DHT22;2304;47.606;12.186;2022-07-09T22:29:35;20.20;60.60
4584;DHT22;2304;47.606;12.186;2022-07-09T22:34:38;20.20;61.90
4584;DHT22;2304;47.606;12.186;2022-07-09T22:39:40;20.10;62.40
4584;DHT22;2304;47.606;12.186;2022-07-09T22:44:42;20.00;62.90
4584;DHT22;2304;47.606;12.186;2022-07-09T22:49:45;20.00;63.30
4584;DHT22;2304;47.606;12.186;2022-07-09T22:54:47;20.00;62.90
4584;DHT22;2304;47.606;12.186;2022-07-09T22:59:49;19.90;63.20
4584;DHT22;2304;47.606;12.186;2022-07-09T23:04:52;19.90;63.40
4584;DHT22;2304;47.606;12.186;2022-07-09T23:09:54;19.90;63.80
4584;DHT22;2304;47.606;12.186;2022-07-09T23:14:56;19.90;63.70
4584;DHT22;2304;47.606;12.186;2022-07-09T23:19:59;20.00;64.30
4584;DHT22;2304;47.606;12.186;2022-07-09T23:25:01;19.80;64.20
4584;DHT22;2304;47.606;12.186;2022-07-09T23:30:04;19.90;64.50
4584;DHT22;2304;47.606;12.186;2022-07-09T23:35:11;19.90;64.60
4584;DHT22;2304;47.606;12.186;2022-07-09T23:40:13;19.90;65.50
4584;DHT22;2304;47.606;12.186;2022-07-09T23:45:16;19.90;64.50
4584;DHT22;2304;47.606;12.186;2022-07-09T23:50:19;20.10;64.50
4584;DHT22;2304;47.606;12.186;2022-07-09T23:55:21;19.90;64.30
